sensor_id;sensor_type;location;lat;lon;timestamp;temperature;humidity
11055;DHT22;5580;50.106;8.702;2022-11-02T00:00:19;13.60;99.90
11055;DHT22;5580;50.106;8.702;2022-11-02T00:02:44;13.60;99.90
11055;DHT22;5580;50.106;8.702;2022-11-02T00:05:11;13.60;99.90
11055;DHT22;5580;50.106;8.702;2022-11-02T00:07:38;13.60;99.90
11055;DHT22;5580;50.106;8.702;2022-11-02T00:10:04;13.60;99.90
11055;DHT22;5580;50.106;8.702;2022-11-02T00:12:30;13.50;99.90
11055;DHT22;5580;50.106;8.702;2022-11-02T00:14:55;13.50;99.90
11055;DHT22;5580;50.106;8.702;2022-11-02T00:17:21;13.40;99.90
11055;DHT22;5580;50.106;8.702;2022-11-02T00:19:47;13.40;99.90
11055;DHT22;5580;50.106;8.702;2022-11-02T00:22:12;13.30;99.90
11055;DHT22;5580;50.106;8.702;2022-11-02T00:24:38;13.30;99.90
11055;DHT22;5580;50.106;8.702;2022-11-02T00:27:04;13.30;99.90
11055;DHT22;5580;50.106;8.702;2022-11-02T00:29:29;13.20;99.90
11055;DHT22;5580;50.106;8.702;2022-11-02T00:31:55;13.20;99.90
11055;DHT22;5580;50.106;8.702;2022-11-02T00:34:20;13.10;99.90
11055;DHT22;5580;50.106;8.702;2022-11-02T00:36:46;13.10;99.90
11055;DHT22;5580;50.106;8.702;2022-11-02T00:39:12;13.10;99.90
11055;DHT22;5580;50.106;8.702;2022-11-02T00:41:37;13.10;99.90
11055;DHT22;5580;50.106;8.702;2022-11-02T00:44:03;13.10;99.90
11055;DHT22;5580;50.106;8.702;2022-11-02T00:46:29;13.00;99.90
11055;DHT22;5580;50.106;8.702;2022-11-02T00:48:54;13.00;99.90
11055;DHT22;5580;50.106;8.702;2022-11-02T00:51:20;12.90;99.90
11055;DHT22;5580;50.106;8.702;2022-11-02T00:53:45;12.80;99.90
11055;DHT22;5580;50.106;8.702;2022-11-02T00:56:11;12.70;99.90
11055;DHT22;5580;50.106;8.702;2022-11-02T00:58:36;12.70;99.90
11055;DHT22;5580;50.106;8.702;2022-11-02T01:01:06;12.60;99.90
11055;DHT22;5580;50.106;8.702;2022-11-02T01:03:32;12.60;99.90
11055;DHT22;5580;50.106;8.702;2022-11-02T01:05:57;12.60;99.90
11055;DHT22;5580;50.106;8.702;2022-11-02T01:08:23;12.60;99.90
11055;DHT22;5580;50.106;8.702;2022-11-02T01:10:49;12.70;99.90
11055;DHT22;5580;50.106;8.702;2022-11-02T01:13:15;12.70;99.90
11055;DHT22;5580;50.106;8.702;2022-11-02T01:15:40;12.70;99.90
11055;DHT22;5580;50.106;8.702;2022-11-02T01:18:07;12.70;99.90
11055;DHT22;5580;50.106;8.702;2022-11-02T01:20:33;12.70;99.90
11055;DHT22;5580;50.106;8.702;2022-11-02T01:22:59;12.70;99.90
11055;DHT22;5580;50.106;8.702;2022-11-02T01:25:24;12.70;99.90
11055;DHT22;5580;50.106;8.702;2022-11-02T01:27:50;12.70;99.90
11055;DHT22;5580;50.106;8.702;2022-11-02T01:30:16;12.70;99.90
11055;DHT22;5580;50.106;8.702;2022-11-02T01:32:41;12.60;99.90
11055;DHT22;5580;50.106;8.702;2022-11-02T01:35:07;12.60;99.90
11055;DHT22;5580;50.106;8.702;2022-11-02T01:37:33;12.50;99.90
11055;DHT22;5580;50.106;8.702;2022-11-02T01:39:59;12.60;99.90
11055;DHT22;5580;50.106;8.702;2022-11-02T01:42:26;12.60;99.90
11055;DHT22;5580;50.106;8.702;2022-11-02T01:44:52;12.50;99.90
11055;DHT22;5580;50.106;8.702;2022-11-02T01:47:30;12.50;99.90
11055;DHT22;5580;50.106;8.702;2022-11-02T01:50:16;12.50;99.90
11055;DHT22;5580;50.106;8.702;2022-11-02T01:52:42;12.50;99.90
11055;DHT22;5580;50.106;8.702;2022-11-02T01:55:16;12.50;99.90
11055;DHT22;5580;50.106;8.702;2022-11-02T01:57:46;12.60;99.90
11055;DHT22;5580;50.106;8.702;2022-11-02T02:00:14;12.60;99.90
11055;DHT22;5580;50.106;8.702;2022-11-02T02:05:20;12.60;99.90
11055;DHT22;5580;50.106;8.702;2022-11-02T02:07:46;12.60;99.90
11055;DHT22;5580;50.106;8.702;2022-11-02T02:10:12;12.60;99.90
11055;DHT22;5580;50.106;8.702;2022-11-02T02:12:39;12.50;99.90
11055;DHT22;5580;50.106;8.702;2022-11-02T02:15:06;12.60;99.90
11055;DHT22;5580;50.106;8.702;2022-11-02T02:28:35;12.60;99.90
11055;DHT22;5580;50.106;8.702;2022-11-02T02:36:44;12.50;99.90
11055;DHT22;5580;50.106;8.702;2022-11-02T02:42:05;12.40;99.90
11055;DHT22;5580;50.106;8.702;2022-11-02T02:44:35;12.40;99.90
11055;DHT22;5580;50.106;8.702;2022-11-02T02:47:17;12.40;99.90
11055;DHT22;5580;50.106;8.702;2022-11-02T02:50:02;12.40;99.90
11055;DHT22;5580;50.106;8.702;2022-11-02T02:52:31;12.40;99.90
11055;DHT22;5580;50.106;8.702;2022-11-02T02:54:59;12.30;99.90
11055;DHT22;5580;50.106;8.702;2022-11-02T02:57:27;12.30;99.90
11055;DHT22;5580;50.106;8.702;2022-11-02T02:59:54;12.30;99.90
11055;DHT22;5580;50.106;8.702;2022-11-02T03:02:27;12.30;99.90
11055;DHT22;5580;50.106;8.702;2022-11-02T03:04:54;12.40;99.90
11055;DHT22;5580;50.106;8.702;2022-11-02T03:07:24;12.40;99.90
11055;DHT22;5580;50.106;8.702;2022-11-02T03:13:06;12.40;99.90
11055;DHT22;5580;50.106;8.702;2022-11-02T03:18:31;12.40;99.90
11055;DHT22;5580;50.106;8.702;2022-11-02T03:23:51;12.40;99.90
11055;DHT22;5580;50.106;8.702;2022-11-02T03:26:29;12.40;99.90
11055;DHT22;5580;50.106;8.702;2022-11-02T03:29:02;12.40;99.90
11055;DHT22;5580;50.106;8.702;2022-11-02T03:31:36;12.50;99.90
11055;DHT22;5580;50.106;8.702;2022-11-02T03:34:27;12.50;99.90
11055;DHT22;5580;50.106;8.702;2022-11-02T03:37:17;12.50;99.90
11055;DHT22;5580;50.106;8.702;2022-11-02T03:39:45;12.50;99.90
11055;DHT22;5580;50.106;8.702;2022-11-02T03:42:14;12.50;99.90
11055;DHT22;5580;50.106;8.702;2022-11-02T03:44:42;12.40;99.90
11055;DHT22;5580;50.106;8.702;2022-11-02T03:47:11;12.50;99.90
11055;DHT22;5580;50.106;8.702;2022-11-02T03:49:41;12.50;99.90
11055;DHT22;5580;50.106;8.702;2022-11-02T03:52:11;12.50;99.90
11055;DHT22;5580;50.106;8.702;2022-11-02T03:54:53;12.50;99.90
11055;DHT22;5580;50.106;8.702;2022-11-02T03:57:26;12.50;99.90
11055;DHT22;5580;50.106;8.702;2022-11-02T03:59:53;12.50;99.90
11055;DHT22;5580;50.106;8.702;2022-11-02T04:02:30;12.50;99.90
11055;DHT22;5580;50.106;8.702;2022-11-02T04:04:56;12.50;99.90
11055;DHT22;5580;50.106;8.702;2022-11-02T04:07:26;12.50;99.90
11055;DHT22;5580;50.106;8.702;2022-11-02T04:09:54;12.50;99.90
11055;DHT22;5580;50.106;8.702;2022-11-02T04:12:19;12.50;99.90
11055;DHT22;5580;50.106;8.702;2022-11-02T04:15:04;12.50;99.90
11055;DHT22;5580;50.106;8.702;2022-11-02T04:17:30;12.40;99.90
11055;DHT22;5580;50.106;8.702;2022-11-02T04:20:31;12.40;99.90
11055;DHT22;5580;50.106;8.702;2022-11-02T04:22:57;12.40;99.90
11055;DHT22;5580;50.106;8.702;2022-11-02T04:25:41;12.50;99.90
11055;DHT22;5580;50.106;8.702;2022-11-02T04:28:08;12.50;99.90
11055;DHT22;5580;50.106;8.702;2022-11-02T04:30:33;12.50;99.90
11055;DHT22;5580;50.106;8.702;2022-11-02T04:32:59;12.60;99.90
11055;DHT22;5580;50.106;8.702;2022-11-02T04:35:43;12.60;99.90
11055;DHT22;5580;50.106;8.702;2022-11-02T04:38:09;12.60;99.90
11055;DHT22;5580;50.106;8.702;2022-11-02T04:40:53;12.60;99.90
11055;DHT22;5580;50.106;8.702;2022-11-02T04:43:39;12.60;99.90
11055;DHT22;5580;50.106;8.702;2022-11-02T04:46:04;12.60;99.90
11055;DHT22;5580;50.106;8.702;2022-11-02T04:48:30;12.60;99.90
11055;DHT22;5580;50.106;8.702;2022-11-02T04:50:57;12.60;99.90
11055;DHT22;5580;50.106;8.702;2022-11-02T04:53:22;12.60;99.90
11055;DHT22;5580;50.106;8.702;2022-11-02T04:55:48;12.60;99.90
11055;DHT22;5580;50.106;8.702;2022-11-02T04:58:13;12.60;99.90
11055;DHT22;5580;50.106;8.702;2022-11-02T05:00:39;12.60;99.90
11055;DHT22;5580;50.106;8.702;2022-11-02T05:03:04;12.60;99.90
11055;DHT22;5580;50.106;8.702;2022-11-02T05:05:30;12.60;99.90
11055;DHT22;5580;50.106;8.702;2022-11-02T05:07:56;12.60;99.90
11055;DHT22;5580;50.106;8.702;2022-11-02T05:10:21;12.60;99.90
11055;DHT22;5580;50.106;8.702;2022-11-02T05:12:47;12.60;99.90
11055;DHT22;5580;50.106;8.702;2022-11-02T05:15:13;12.60;99.90
11055;DHT22;5580;50.106;8.702;2022-11-02T05:17:38;12.50;99.90
11055;DHT22;5580;50.106;8.702;2022-11-02T05:20:04;12.50;99.90
11055;DHT22;5580;50.106;8.702;2022-11-02T05:22:30;12.50;99.90
11055;DHT22;5580;50.106;8.702;2022-11-02T05:24:55;12.50;99.90
11055;DHT22;5580;50.106;8.702;2022-11-02T05:27:21;12.50;99.90
11055;DHT22;5580;50.106;8.702;2022-11-02T05:29:46;12.50;99.90
11055;DHT22;5580;50.106;8.702;2022-11-02T05:32:12;12.50;99.90
11055;DHT22;5580;50.106;8.702;2022-11-02T05:34:37;12.50;99.90
11055;DHT22;5580;50.106;8.702;2022-11-02T05:37:03;12.50;99.90
11055;DHT22;5580;50.106;8.702;2022-11-02T05:39:29;12.40;99.90
11055;DHT22;5580;50.106;8.702;2022-11-02T05:41:54;12.40;99.90
11055;DHT22;5580;50.106;8.702;2022-11-02T05:44:20;12.40;99.90
11055;DHT22;5580;50.106;8.702;2022-11-02T05:46:45;12.40;99.90
11055;DHT22;5580;50.106;8.702;2022-11-02T05:49:11;12.40;99.90
11055;DHT22;5580;50.106;8.702;2022-11-02T05:51:36;12.30;99.90
11055;DHT22;5580;50.106;8.702;2022-11-02T05:54:02;12.30;99.90
11055;DHT22;5580;50.106;8.702;2022-11-02T05:56:28;12.30;99.90
11055;DHT22;5580;50.106;8.702;2022-11-02T05:58:54;12.30;99.90
11055;DHT22;5580;50.106;8.702;2022-11-02T06:01:19;12.30;99.90
11055;DHT22;5580;50.106;8.702;2022-11-02T06:03:45;12.30;99.90
11055;DHT22;5580;50.106;8.702;2022-11-02T06:06:11;12.30;99.90
11055;DHT22;5580;50.106;8.702;2022-11-02T06:08:38;12.30;99.90
11055;DHT22;5580;50.106;8.702;2022-11-02T06:11:08;12.30;99.90
11055;DHT22;5580;50.106;8.702;2022-11-02T06:13:34;12.30;99.90
11055;DHT22;5580;50.106;8.702;2022-11-02T06:16:01;12.30;99.90
11055;DHT22;5580;50.106;8.702;2022-11-02T06:18:27;12.30;99.90
11055;DHT22;5580;50.106;8.702;2022-11-02T06:20:55;12.30;99.90
11055;DHT22;5580;50.106;8.702;2022-11-02T06:23:21;12.30;99.90
11055;DHT22;5580;50.106;8.702;2022-11-02T06:25:55;12.30;99.90
11055;DHT22;5580;50.106;8.702;2022-11-02T06:28:21;12.30;99.90
11055;DHT22;5580;50.106;8.702;2022-11-02T06:30:47;12.30;99.90
11055;DHT22;5580;50.106;8.702;2022-11-02T06:33:14;12.30;99.90
11055;DHT22;5580;50.106;8.702;2022-11-02T06:35:43;12.20;99.90
11055;DHT22;5580;50.106;8.702;2022-11-02T06:38:09;12.30;99.90
11055;DHT22;5580;50.106;8.702;2022-11-02T06:40:35;12.20;99.90
11055;DHT22;5580;50.106;8.702;2022-11-02T06:43:00;12.30;99.90
11055;DHT22;5580;50.106;8.702;2022-11-02T06:45:26;12.30;99.90
11055;DHT22;5580;50.106;8.702;2022-11-02T06:47:51;12.30;99.90
11055;DHT22;5580;50.106;8.702;2022-11-02T06:50:17;12.30;99.90
11055;DHT22;5580;50.106;8.702;2022-11-02T06:52:46;12.30;99.90
11055;DHT22;5580;50.106;8.702;2022-11-02T06:55:13;12.30;99.90
11055;DHT22;5580;50.106;8.702;2022-11-02T06:57:40;12.30;99.90
11055;DHT22;5580;50.106;8.702;2022-11-02T07:00:09;12.20;99.90
11055;DHT22;5580;50.106;8.702;2022-11-02T07:02:37;12.20;99.90
11055;DHT22;5580;50.106;8.702;2022-11-02T07:05:03;12.20;99.90
11055;DHT22;5580;50.106;8.702;2022-11-02T07:07:28;12.20;99.90
11055;DHT22;5580;50.106;8.702;2022-11-02T07:09:54;12.20;99.90
11055;DHT22;5580;50.106;8.702;2022-11-02T07:12:19;12.20;99.90
11055;DHT22;5580;50.106;8.702;2022-11-02T07:14:45;12.20;99.90
11055;DHT22;5580;50.106;8.702;2022-11-02T07:17:10;12.20;99.90
11055;DHT22;5580;50.106;8.702;2022-11-02T07:19:36;12.20;99.90
11055;DHT22;5580;50.106;8.702;2022-11-02T07:22:02;12.20;99.90
11055;DHT22;5580;50.106;8.702;2022-11-02T07:24:28;12.20;99.90
11055;DHT22;5580;50.106;8.702;2022-11-02T07:26:53;12.20;99.90
11055;DHT22;5580;50.106;8.702;2022-11-02T07:29:19;12.20;99.90
11055;DHT22;5580;50.106;8.702;2022-11-02T07:31:45;12.20;99.90
11055;DHT22;5580;50.106;8.702;2022-11-02T07:34:11;12.20;99.90
11055;DHT22;5580;50.106;8.702;2022-11-02T07:36:37;12.20;99.90
11055;DHT22;5580;50.106;8.702;2022-11-02T07:39:03;12.20;99.90
11055;DHT22;5580;50.106;8.702;2022-11-02T07:41:29;12.20;99.90
11055;DHT22;5580;50.106;8.702;2022-11-02T07:43:54;12.20;99.90
11055;DHT22;5580;50.106;8.702;2022-11-02T07:46:20;12.20;99.90
11055;DHT22;5580;50.106;8.702;2022-11-02T07:48:46;12.20;99.90
11055;DHT22;5580;50.106;8.702;2022-11-02T07:51:12;12.20;99.90
11055;DHT22;5580;50.106;8.702;2022-11-02T07:53:38;12.20;99.90
11055;DHT22;5580;50.106;8.702;2022-11-02T07:56:04;12.20;99.90
11055;DHT22;5580;50.106;8.702;2022-11-02T07:58:30;12.30;99.90
11055;DHT22;5580;50.106;8.702;2022-11-02T08:00:57;12.30;99.90
11055;DHT22;5580;50.106;8.702;2022-11-02T08:03:23;12.40;99.90
11055;DHT22;5580;50.106;8.702;2022-11-02T08:05:49;12.40;99.90
11055;DHT22;5580;50.106;8.702;2022-11-02T08:08:17;12.40;99.90
11055;DHT22;5580;50.106;8.702;2022-11-02T08:10:45;12.40;99.90
11055;DHT22;5580;50.106;8.702;2022-11-02T08:13:14;12.40;99.90
11055;DHT22;5580;50.106;8.702;2022-11-02T08:15:40;12.50;99.90
11055;DHT22;5580;50.106;8.702;2022-11-02T08:20:38;12.50;99.90
11055;DHT22;5580;50.106;8.702;2022-11-02T08:23:05;12.50;99.90
11055;DHT22;5580;50.106;8.702;2022-11-02T08:25:32;12.50;99.90
11055;DHT22;5580;50.106;8.702;2022-11-02T08:27:59;12.60;99.90
11055;DHT22;5580;50.106;8.702;2022-11-02T08:30:25;12.60;99.90
11055;DHT22;5580;50.106;8.702;2022-11-02T08:32:51;12.70;99.90
11055;DHT22;5580;50.106;8.702;2022-11-02T08:35:17;12.70;99.90
11055;DHT22;5580;50.106;8.702;2022-11-02T08:37:42;12.80;99.90
11055;DHT22;5580;50.106;8.702;2022-11-02T08:40:08;12.90;99.90
11055;DHT22;5580;50.106;8.702;2022-11-02T08:42:34;12.90;99.90
11055;DHT22;5580;50.106;8.702;2022-11-02T08:45:06;13.00;99.90
11055;DHT22;5580;50.106;8.702;2022-11-02T08:47:32;13.10;99.90
11055;DHT22;5580;50.106;8.702;2022-11-02T08:49:58;13.20;99.90
11055;DHT22;5580;50.106;8.702;2022-11-02T08:52:23;13.20;99.90
11055;DHT22;5580;50.106;8.702;2022-11-02T08:54:49;13.30;99.90
11055;DHT22;5580;50.106;8.702;2022-11-02T08:57:14;13.40;99.90
11055;DHT22;5580;50.106;8.702;2022-11-02T08:59:40;13.50;99.90
11055;DHT22;5580;50.106;8.702;2022-11-02T09:02:05;13.50;99.90
11055;DHT22;5580;50.106;8.702;2022-11-02T09:04:31;13.60;99.90
11055;DHT22;5580;50.106;8.702;2022-11-02T09:06:56;13.70;99.90
11055;DHT22;5580;50.106;8.702;2022-11-02T09:09:22;13.80;99.90
11055;DHT22;5580;50.106;8.702;2022-11-02T09:11:49;13.90;99.90
11055;DHT22;5580;50.106;8.702;2022-11-02T09:14:15;13.90;99.90
11055;DHT22;5580;50.106;8.702;2022-11-02T09:16:40;14.00;99.90
11055;DHT22;5580;50.106;8.702;2022-11-02T09:19:06;14.10;99.90
11055;DHT22;5580;50.106;8.702;2022-11-02T09:21:31;14.10;99.90
11055;DHT22;5580;50.106;8.702;2022-11-02T09:23:57;14.10;99.90
11055;DHT22;5580;50.106;8.702;2022-11-02T09:26:23;14.10;99.90
11055;DHT22;5580;50.106;8.702;2022-11-02T09:28:48;14.20;99.90
11055;DHT22;5580;50.106;8.702;2022-11-02T09:31:14;14.20;99.90
11055;DHT22;5580;50.106;8.702;2022-11-02T09:33:39;14.20;99.90
11055;DHT22;5580;50.106;8.702;2022-11-02T09:36:05;14.20;99.90
11055;DHT22;5580;50.106;8.702;2022-11-02T09:38:31;14.30;99.90
11055;DHT22;5580;50.106;8.702;2022-11-02T09:46:29;14.40;99.90
11055;DHT22;5580;50.106;8.702;2022-11-02T09:49:17;14.40;99.90
11055;DHT22;5580;50.106;8.702;2022-11-02T09:51:49;14.40;99.90
11055;DHT22;5580;50.106;8.702;2022-11-02T09:54:26;14.50;99.90
11055;DHT22;5580;50.106;8.702;2022-11-02T09:56:56;14.60;99.90
11055;DHT22;5580;50.106;8.702;2022-11-02T09:59:25;14.60;99.90
11055;DHT22;5580;50.106;8.702;2022-11-02T10:12:43;14.80;99.90
11055;DHT22;5580;50.106;8.702;2022-11-02T10:15:21;14.80;99.90
11055;DHT22;5580;50.106;8.702;2022-11-02T10:17:52;14.90;99.90
11055;DHT22;5580;50.106;8.702;2022-11-02T10:20:25;15.00;99.90
11055;DHT22;5580;50.106;8.702;2022-11-02T10:22:56;15.00;99.90
11055;DHT22;5580;50.106;8.702;2022-11-02T10:25:23;15.00;99.90
11055;DHT22;5580;50.106;8.702;2022-11-02T10:27:52;15.00;99.90
11055;DHT22;5580;50.106;8.702;2022-11-02T10:30:21;14.90;99.90
11055;DHT22;5580;50.106;8.702;2022-11-02T10:32:50;14.90;99.90
11055;DHT22;5580;50.106;8.702;2022-11-02T10:38:12;14.80;99.90
11055;DHT22;5580;50.106;8.702;2022-11-02T10:41:03;14.90;99.90
11055;DHT22;5580;50.106;8.702;2022-11-02T10:49:08;14.90;99.90
11055;DHT22;5580;50.106;8.702;2022-11-02T10:51:37;14.90;99.90
11055;DHT22;5580;50.106;8.702;2022-11-02T10:54:11;14.90;99.90
11055;DHT22;5580;50.106;8.702;2022-11-02T10:56:39;15.00;99.90
11055;DHT22;5580;50.106;8.702;2022-11-02T10:59:15;14.90;99.90
11055;DHT22;5580;50.106;8.702;2022-11-02T11:01:46;15.00;99.90
11055;DHT22;5580;50.106;8.702;2022-11-02T11:04:24;14.90;99.90
11055;DHT22;5580;50.106;8.702;2022-11-02T11:06:50;14.90;99.90
11055;DHT22;5580;50.106;8.702;2022-11-02T11:09:20;14.90;99.90
11055;DHT22;5580;50.106;8.702;2022-11-02T11:14:20;14.90;99.90
11055;DHT22;5580;50.106;8.702;2022-11-02T11:16:53;14.90;99.90
11055;DHT22;5580;50.106;8.702;2022-11-02T11:21:44;14.90;99.90
11055;DHT22;5580;50.106;8.702;2022-11-02T11:29:34;14.90;99.90
11055;DHT22;5580;50.106;8.702;2022-11-02T11:32:03;15.00;99.90
11055;DHT22;5580;50.106;8.702;2022-11-02T11:34:31;15.00;99.90
11055;DHT22;5580;50.106;8.702;2022-11-02T11:37:09;15.00;99.90
11055;DHT22;5580;50.106;8.702;2022-11-02T11:39:36;15.00;99.90
11055;DHT22;5580;50.106;8.702;2022-11-02T11:42:04;15.00;99.90
11055;DHT22;5580;50.106;8.702;2022-11-02T11:44:30;15.10;99.90
11055;DHT22;5580;50.106;8.702;2022-11-02T11:46:57;15.20;99.90
11055;DHT22;5580;50.106;8.702;2022-11-02T11:49:28;15.20;99.90
11055;DHT22;5580;50.106;8.702;2022-11-02T11:51:56;15.30;99.90
11055;DHT22;5580;50.106;8.702;2022-11-02T11:54:29;15.30;99.90
11055;DHT22;5580;50.106;8.702;2022-11-02T11:57:15;15.30;99.90
11055;DHT22;5580;50.106;8.702;2022-11-02T12:02:25;15.40;99.90
11055;DHT22;5580;50.106;8.702;2022-11-02T12:04:57;15.40;99.90
11055;DHT22;5580;50.106;8.702;2022-11-02T12:25:24;15.30;99.90
11055;DHT22;5580;50.106;8.702;2022-11-02T12:27:39;15.30;99.90
11055;DHT22;5580;50.106;8.702;2022-11-02T12:33:02;15.40;99.90
11055;DHT22;5580;50.106;8.702;2022-11-02T12:43:46;15.50;99.90
11055;DHT22;5580;50.106;8.702;2022-11-02T12:46:35;15.50;99.90
11055;DHT22;5580;50.106;8.702;2022-11-02T12:54:31;15.50;99.90
11055;DHT22;5580;50.106;8.702;2022-11-02T12:56:59;15.60;99.90
11055;DHT22;5580;50.106;8.702;2022-11-02T12:59:27;15.60;99.90
11055;DHT22;5580;50.106;8.702;2022-11-02T13:02:04;15.60;99.90
11055;DHT22;5580;50.106;8.702;2022-11-02T13:04:34;15.60;99.90
11055;DHT22;5580;50.106;8.702;2022-11-02T13:07:10;15.60;99.90
11055;DHT22;5580;50.106;8.702;2022-11-02T13:12:18;15.60;99.90
11055;DHT22;5580;50.106;8.702;2022-11-02T13:14:50;15.70;99.90
11055;DHT22;5580;50.106;8.702;2022-11-02T13:25:48;15.70;99.90
11055;DHT22;5580;50.106;8.702;2022-11-02T13:28:40;15.70;99.90
11055;DHT22;5580;50.106;8.702;2022-11-02T13:31:13;15.70;99.90
11055;DHT22;5580;50.106;8.702;2022-11-02T13:33:43;15.70;99.90
11055;DHT22;5580;50.106;8.702;2022-11-02T13:36:11;15.70;99.90
11055;DHT22;5580;50.106;8.702;2022-11-02T13:43:53;15.80;99.90
11055;DHT22;5580;50.106;8.702;2022-11-02T13:46:40;15.80;99.90
11055;DHT22;5580;50.106;8.702;2022-11-02T13:49:28;15.80;99.90
11055;DHT22;5580;50.106;8.702;2022-11-02T13:52:23;15.80;99.90
11055;DHT22;5580;50.106;8.702;2022-11-02T13:54:54;15.80;99.90
11055;DHT22;5580;50.106;8.702;2022-11-02T13:57:36;15.80;99.90
11055;DHT22;5580;50.106;8.702;2022-11-02T14:00:25;15.80;99.90
11055;DHT22;5580;50.106;8.702;2022-11-02T14:03:24;15.80;99.90
11055;DHT22;5580;50.106;8.702;2022-11-02T14:05:59;15.80;99.90
11055;DHT22;5580;50.106;8.702;2022-11-02T14:08:35;15.80;99.90
11055;DHT22;5580;50.106;8.702;2022-11-02T14:16:39;15.80;99.90
11055;DHT22;5580;50.106;8.702;2022-11-02T14:22:06;15.80;99.90
11055;DHT22;5580;50.106;8.702;2022-11-02T14:35:11;15.80;99.90
11055;DHT22;5580;50.106;8.702;2022-11-02T14:43:05;15.80;99.90
11055;DHT22;5580;50.106;8.702;2022-11-02T14:48:04;15.70;99.90
11055;DHT22;5580;50.106;8.702;2022-11-02T14:50:30;15.70;99.90
11055;DHT22;5580;50.106;8.702;2022-11-02T14:53:00;15.70;99.90
11055;DHT22;5580;50.106;8.702;2022-11-02T14:55:32;15.70;99.90
11055;DHT22;5580;50.106;8.702;2022-11-02T14:58:13;15.80;99.90
11055;DHT22;5580;50.106;8.702;2022-11-02T15:03:28;15.80;99.90
11055;DHT22;5580;50.106;8.702;2022-11-02T15:08:31;15.70;99.90
11055;DHT22;5580;50.106;8.702;2022-11-02T15:10:58;15.70;99.90
11055;DHT22;5580;50.106;8.702;2022-11-02T15:13:32;15.70;99.90
11055;DHT22;5580;50.106;8.702;2022-11-02T15:23:53;15.70;99.90
11055;DHT22;5580;50.106;8.702;2022-11-02T15:29:02;15.70;99.90
11055;DHT22;5580;50.106;8.702;2022-11-02T15:31:29;15.60;99.90
11055;DHT22;5580;50.106;8.702;2022-11-02T15:33:59;15.60;99.90
11055;DHT22;5580;50.106;8.702;2022-11-02T15:36:35;15.60;99.90
11055;DHT22;5580;50.106;8.702;2022-11-02T15:39:05;15.60;99.90
11055;DHT22;5580;50.106;8.702;2022-11-02T15:41:46;15.50;99.90
11055;DHT22;5580;50.106;8.702;2022-11-02T15:55:22;15.40;99.90
11055;DHT22;5580;50.106;8.702;2022-11-02T16:00:42;15.40;99.90
11055;DHT22;5580;50.106;8.702;2022-11-02T16:03:08;15.30;99.90
11055;DHT22;5580;50.106;8.702;2022-11-02T16:05:41;15.30;99.90
11055;DHT22;5580;50.106;8.702;2022-11-02T16:08:25;15.30;99.90
11055;DHT22;5580;50.106;8.702;2022-11-02T16:11:12;15.30;99.90
11055;DHT22;5580;50.106;8.702;2022-11-02T16:13:39;15.20;99.90
11055;DHT22;5580;50.106;8.702;2022-11-02T16:16:06;15.10;99.90
11055;DHT22;5580;50.106;8.702;2022-11-02T16:18:37;15.10;99.90
11055;DHT22;5580;50.106;8.702;2022-11-02T16:21:05;15.10;99.90
11055;DHT22;5580;50.106;8.702;2022-11-02T16:23:36;15.10;99.90
11055;DHT22;5580;50.106;8.702;2022-11-02T16:26:04;15.00;99.90
11055;DHT22;5580;50.106;8.702;2022-11-02T16:28:34;15.00;99.90
11055;DHT22;5580;50.106;8.702;2022-11-02T16:31:17;15.00;99.90
11055;DHT22;5580;50.106;8.702;2022-11-02T16:33:46;15.00;99.90
11055;DHT22;5580;50.106;8.702;2022-11-02T16:36:17;14.90;99.90
11055;DHT22;5580;50.106;8.702;2022-11-02T16:41:30;14.80;99.90
11055;DHT22;5580;50.106;8.702;2022-11-02T16:43:59;14.80;99.90
11055;DHT22;5580;50.106;8.702;2022-11-02T16:46:30;14.80;99.90
11055;DHT22;5580;50.106;8.702;2022-11-02T16:49:03;14.80;99.90
11055;DHT22;5580;50.106;8.702;2022-11-02T16:51:32;14.80;99.90
11055;DHT22;5580;50.106;8.702;2022-11-02T16:57:10;14.70;99.90
11055;DHT22;5580;50.106;8.702;2022-11-02T16:59:48;14.70;99.90
11055;DHT22;5580;50.106;8.702;2022-11-02T17:02:15;14.70;99.90
11055;DHT22;5580;50.106;8.702;2022-11-02T17:04:42;14.70;99.90
11055;DHT22;5580;50.106;8.702;2022-11-02T17:09:35;14.60;99.90
11055;DHT22;5580;50.106;8.702;2022-11-02T17:12:38;14.60;99.90
11055;DHT22;5580;50.106;8.702;2022-11-02T17:15:18;14.60;99.90
11055;DHT22;5580;50.106;8.702;2022-11-02T17:17:44;14.50;99.90
11055;DHT22;5580;50.106;8.702;2022-11-02T17:22:57;14.50;99.90
11055;DHT22;5580;50.106;8.702;2022-11-02T17:28:04;14.40;99.90
11055;DHT22;5580;50.106;8.702;2022-11-02T17:30:50;14.30;99.90
11055;DHT22;5580;50.106;8.702;2022-11-02T17:33:25;14.30;99.90
11055;DHT22;5580;50.106;8.702;2022-11-02T17:35:53;14.30;99.90
11055;DHT22;5580;50.106;8.702;2022-11-02T17:38:24;14.30;99.90
11055;DHT22;5580;50.106;8.702;2022-11-02T17:40:51;14.30;99.90
11055;DHT22;5580;50.106;8.702;2022-11-02T17:43:18;14.20;99.90
11055;DHT22;5580;50.106;8.702;2022-11-02T17:45:45;14.20;99.90
11055;DHT22;5580;50.106;8.702;2022-11-02T17:48:10;14.20;99.90
11055;DHT22;5580;50.106;8.702;2022-11-02T17:50:37;14.20;99.90
11055;DHT22;5580;50.106;8.702;2022-11-02T17:53:04;14.10;99.90
11055;DHT22;5580;50.106;8.702;2022-11-02T17:55:32;14.10;99.90
11055;DHT22;5580;50.106;8.702;2022-11-02T17:57:59;14.10;99.90
11055;DHT22;5580;50.106;8.702;2022-11-02T18:00:26;14.10;99.90
11055;DHT22;5580;50.106;8.702;2022-11-02T18:02:59;14.10;99.90
11055;DHT22;5580;50.106;8.702;2022-11-02T18:07:57;14.10;99.90
11055;DHT22;5580;50.106;8.702;2022-11-02T18:10:25;14.10;99.90
11055;DHT22;5580;50.106;8.702;2022-11-02T18:12:52;14.00;99.90
11055;DHT22;5580;50.106;8.702;2022-11-02T18:15:28;14.00;99.90
11055;DHT22;5580;50.106;8.702;2022-11-02T18:17:54;14.00;99.90
11055;DHT22;5580;50.106;8.702;2022-11-02T18:20:22;13.90;99.90
11055;DHT22;5580;50.106;8.702;2022-11-02T18:22:49;13.90;99.90
11055;DHT22;5580;50.106;8.702;2022-11-02T18:25:16;13.90;99.90
11055;DHT22;5580;50.106;8.702;2022-11-02T18:27:43;13.90;99.90
11055;DHT22;5580;50.106;8.702;2022-11-02T18:30:11;13.90;99.90
11055;DHT22;5580;50.106;8.702;2022-11-02T18:32:38;13.90;99.90
11055;DHT22;5580;50.106;8.702;2022-11-02T18:35:05;13.90;99.90
11055;DHT22;5580;50.106;8.702;2022-11-02T18:37:31;13.80;99.90
11055;DHT22;5580;50.106;8.702;2022-11-02T18:39:57;13.80;99.90
11055;DHT22;5580;50.106;8.702;2022-11-02T18:42:23;13.80;99.90
11055;DHT22;5580;50.106;8.702;2022-11-02T18:44:49;13.70;99.90
11055;DHT22;5580;50.106;8.702;2022-11-02T18:47:14;13.70;99.90
11055;DHT22;5580;50.106;8.702;2022-11-02T18:49:40;13.60;99.90
11055;DHT22;5580;50.106;8.702;2022-11-02T18:52:06;13.60;99.90
11055;DHT22;5580;50.106;8.702;2022-11-02T18:54:32;13.60;99.90
11055;DHT22;5580;50.106;8.702;2022-11-02T18:56:57;13.60;99.90
11055;DHT22;5580;50.106;8.702;2022-11-02T18:59:23;13.50;99.90
11055;DHT22;5580;50.106;8.702;2022-11-02T19:01:49;13.40;99.90
11055;DHT22;5580;50.106;8.702;2022-11-02T19:04:14;13.40;99.90
11055;DHT22;5580;50.106;8.702;2022-11-02T19:06:40;13.40;99.90
11055;DHT22;5580;50.106;8.702;2022-11-02T19:09:25;13.40;99.90
11055;DHT22;5580;50.106;8.702;2022-11-02T19:12:02;13.30;99.90